createdAt,value
2023-06-22T00:00:16.289Z,99.90
2023-06-22T00:02:44.063Z,99.90
2023-06-22T00:05:11.843Z,99.90
2023-06-22T00:07:39.544Z,99.90
2023-06-22T00:10:08.073Z,99.90
2023-06-22T00:12:35.831Z,99.90
2023-06-22T00:15:03.727Z,99.90
2023-06-22T00:17:32.868Z,99.90
2023-06-22T00:20:01.224Z,99.90
2023-06-22T00:22:30.443Z,99.90
2023-06-22T00:24:58.594Z,99.90
2023-06-22T00:27:26.407Z,99.90
2023-06-22T00:29:54.187Z,99.90
2023-06-22T00:32:22.046Z,99.90
2023-06-22T00:34:51.492Z,99.90
2023-06-22T00:37:19.657Z,99.90
2023-06-22T00:39:47.447Z,99.90
2023-06-22T00:42:15.235Z,99.90
2023-06-22T00:44:43.225Z,99.90
2023-06-22T00:47:11.006Z,99.90
2023-06-22T00:49:39.917Z,99.90
2023-06-22T00:52:10.192Z,99.90
2023-06-22T00:54:38.400Z,99.90
2023-06-22T00:57:06.258Z,99.90
2023-06-22T00:59:34.622Z,99.90
2023-06-22T01:02:02.401Z,99.90
2023-06-22T01:04:36.357Z,99.90
2023-06-22T01:07:09.640Z,99.90
2023-06-22T01:09:43.248Z,99.90
2023-06-22T01:12:11.917Z,99.90
2023-06-22T01:14:41.821Z,99.90
2023-06-22T01:17:10.815Z,99.90
2023-06-22T01:19:43.680Z,99.90
2023-06-22T01:22:13.599Z,99.90
2023-06-22T01:24:50.064Z,99.90
2023-06-22T01:27:26.579Z,99.90
2023-06-22T01:30:01.258Z,99.90
2023-06-22T01:32:30.443Z,99.90
2023-06-22T01:34:59.152Z,99.90
2023-06-22T01:37:27.074Z,99.90
2023-06-22T01:39:55.990Z,99.90
2023-06-22T01:42:24.364Z,99.90
2023-06-22T01:44:52.449Z,99.90
2023-06-22T01:47:22.191Z,99.90
2023-06-22T01:49:50.533Z,99.90
2023-06-22T01:52:18.297Z,99.90
2023-06-22T01:54:46.609Z,99.90
2023-06-22T01:57:14.383Z,99.90
2023-06-22T01:59:48.625Z,99.90
2023-06-22T02:02:17.614Z,99.90
2023-06-22T02:04:49.815Z,99.90
2023-06-22T02:07:19.213Z,99.90
2023-06-22T02:09:48.916Z,99.90
2023-06-22T02:12:19.397Z,99.90
2023-06-22T02:14:47.492Z,99.90
2023-06-22T02:17:16.111Z,99.90
2023-06-22T02:19:43.860Z,99.90
2023-06-22T02:22:13.646Z,99.90
2023-06-22T02:24:41.420Z,99.90
2023-06-22T02:27:09.389Z,99.90
2023-06-22T02:29:37.173Z,99.90
2023-06-22T02:32:05.252Z,99.90
2023-06-22T02:34:35.137Z,99.90
2023-06-22T02:37:03.542Z,99.90
2023-06-22T02:39:32.659Z,99.90
2023-06-22T02:42:00.468Z,99.90
2023-06-22T02:44:28.223Z,99.90
2023-06-22T02:46:56.327Z,99.90
2023-06-22T02:49:24.078Z,99.90
2023-06-22T02:51:51.986Z,99.90
2023-06-22T02:54:19.763Z,99.90
2023-06-22T02:56:49.219Z,99.90
2023-06-22T02:59:16.950Z,99.90
2023-06-22T03:01:45.036Z,99.90
2023-06-22T03:04:12.826Z,99.90
2023-06-22T03:06:41.901Z,99.90
2023-06-22T03:09:10.078Z,99.90
2023-06-22T03:11:37.842Z,99.90
2023-06-22T03:14:06.966Z,99.90
2023-06-22T03:16:35.119Z,99.90
2023-06-22T03:19:02.933Z,99.90
2023-06-22T03:21:31.039Z,99.90
2023-06-22T03:23:58.761Z,99.90
2023-06-22T03:26:28.021Z,99.90
2023-06-22T03:28:55.886Z,99.90
2023-06-22T03:31:25.119Z,99.90
2023-06-22T03:33:53.002Z,99.90
2023-06-22T03:36:21.062Z,99.90
2023-06-22T03:38:49.460Z,99.90
2023-06-22T03:41:17.552Z,99.90
2023-06-22T03:43:45.612Z,99.90
2023-06-22T03:46:13.595Z,99.90
2023-06-22T03:48:43.128Z,99.90
2023-06-22T03:51:11.105Z,99.90
2023-06-22T03:53:38.996Z,99.90
2023-06-22T03:56:06.950Z,99.90
2023-06-22T03:58:36.519Z,99.90
2023-06-22T04:01:04.457Z,99.90
2023-06-22T04:03:32.463Z,99.90
2023-06-22T04:06:01.841Z,99.90
2023-06-22T04:08:29.738Z,99.90
2023-06-22T04:10:57.719Z,99.90
2023-06-22T04:13:25.761Z,99.90
2023-06-22T04:15:53.750Z,99.90
2023-06-22T04:18:21.720Z,99.90
2023-06-22T04:20:49.863Z,99.90
2023-06-22T04:23:19.133Z,99.90
2023-06-22T04:25:47.086Z,99.90
2023-06-22T04:28:14.965Z,99.90
2023-06-22T04:30:47.598Z,99.90
2023-06-22T04:33:16.127Z,99.90
2023-06-22T04:35:46.576Z,99.90
2023-06-22T04:38:14.672Z,99.90
2023-06-22T04:40:43.964Z,99.90
2023-06-22T04:43:12.113Z,99.90
2023-06-22T04:45:40.050Z,99.90
2023-06-22T04:48:09.522Z,99.90
2023-06-22T04:50:40.017Z,99.90
2023-06-22T04:53:08.548Z,99.90
2023-06-22T04:55:38.932Z,99.90
2023-06-22T04:58:08.256Z,99.90
2023-06-22T05:00:37.438Z,99.90
2023-06-22T05:03:19.194Z,99.90
2023-06-22T05:05:48.084Z,99.90
2023-06-22T05:08:16.762Z,99.90
2023-06-22T05:10:59.095Z,99.90
2023-06-22T05:13:28.970Z,99.90
2023-06-22T05:16:02.810Z,99.90
2023-06-22T05:18:31.450Z,99.90
2023-06-22T05:21:00.415Z,99.90
2023-06-22T05:23:28.488Z,99.90
2023-06-22T05:25:58.781Z,99.90
2023-06-22T05:28:28.522Z,99.90
2023-06-22T05:30:56.710Z,99.90
2023-06-22T05:33:24.700Z,99.90
2023-06-22T05:35:52.672Z,99.90
2023-06-22T05:38:20.586Z,99.90
2023-06-22T05:40:48.513Z,99.90
2023-06-22T05:43:16.463Z,99.90
2023-06-22T05:45:45.773Z,99.90
2023-06-22T05:48:13.788Z,99.90
2023-06-22T05:50:41.751Z,99.90
2023-06-22T05:53:09.656Z,99.90
2023-06-22T05:55:37.667Z,99.90
2023-06-22T05:58:05.719Z,99.90
2023-06-22T06:00:34.106Z,99.90
2023-06-22T06:03:04.942Z,99.90
2023-06-22T06:05:33.206Z,99.90
2023-06-22T06:08:01.633Z,99.90
2023-06-22T06:10:31.165Z,99.90
2023-06-22T06:12:59.452Z,99.90
2023-06-22T06:15:27.407Z,99.90
2023-06-22T06:17:55.704Z,99.90
2023-06-22T06:20:27.179Z,99.90
2023-06-22T06:22:55.457Z,99.90
2023-06-22T06:25:23.415Z,99.90
2023-06-22T06:27:55.442Z,99.90
2023-06-22T06:30:24.031Z,99.90
2023-06-22T06:32:52.466Z,99.90
2023-06-22T06:35:20.604Z,99.90
2023-06-22T06:37:51.293Z,99.90
2023-06-22T06:40:21.008Z,99.90
2023-06-22T06:42:50.644Z,99.90
2023-06-22T06:45:20.319Z,99.90
2023-06-22T06:47:48.847Z,99.90
2023-06-22T06:50:17.212Z,99.90
2023-06-22T06:52:45.154Z,99.90
2023-06-22T06:55:15.141Z,99.90
2023-06-22T06:57:44.260Z,99.90
2023-06-22T07:00:15.181Z,99.90
2023-06-22T07:02:44.399Z,99.90
2023-06-22T07:05:12.675Z,99.90
2023-06-22T07:07:40.809Z,99.90
2023-06-22T07:10:09.544Z,99.90
2023-06-22T07:12:38.951Z,99.90
2023-06-22T07:15:09.752Z,99.90
2023-06-22T07:17:37.993Z,99.90
2023-06-22T07:20:11.664Z,99.90
2023-06-22T07:22:39.939Z,99.90
2023-06-22T07:25:11.018Z,99.90
2023-06-22T07:27:43.769Z,99.90
2023-06-22T07:30:12.889Z,99.90
2023-06-22T07:32:40.815Z,99.90
2023-06-22T07:35:09.511Z,99.90
2023-06-22T07:37:37.491Z,99.90
2023-06-22T07:40:07.581Z,99.90
2023-06-22T07:42:35.984Z,99.90
2023-06-22T07:45:09.014Z,99.90
2023-06-22T07:47:37.438Z,99.90
2023-06-22T07:50:06.697Z,99.90
2023-06-22T07:52:34.812Z,99.90
2023-06-22T07:55:03.250Z,99.90
2023-06-22T07:57:34.919Z,99.90
2023-06-22T08:00:12.324Z,99.90
2023-06-22T08:02:40.607Z,99.90
2023-06-22T08:05:19.939Z,99.90
2023-06-22T08:07:49.499Z,99.90
2023-06-22T08:10:17.924Z,99.90
2023-06-22T08:12:45.923Z,99.90
2023-06-22T08:15:15.314Z,99.90
2023-06-22T08:17:43.353Z,99.90
2023-06-22T08:20:13.614Z,99.90
2023-06-22T08:22:41.990Z,99.80
2023-06-22T08:25:10.936Z,99.40
2023-06-22T08:27:39.282Z,98.00
2023-06-22T08:30:09.443Z,97.50
2023-06-22T08:32:38.744Z,96.40
2023-06-22T08:35:09.329Z,96.20
2023-06-22T08:37:37.820Z,95.90
2023-06-22T08:40:09.021Z,95.70
2023-06-22T08:42:37.235Z,95.40
2023-06-22T08:45:05.882Z,95.20
2023-06-22T08:47:33.922Z,93.10
2023-06-22T08:50:04.633Z,93.70
2023-06-22T08:52:32.748Z,93.40
2023-06-22T08:55:00.721Z,94.10
2023-06-22T08:57:28.915Z,93.00
2023-06-22T08:59:59.644Z,93.00
2023-06-22T09:02:33.067Z,92.40
2023-06-22T09:05:02.497Z,91.40
2023-06-22T09:07:32.049Z,91.90
2023-06-22T09:10:01.338Z,91.70
2023-06-22T09:12:31.938Z,92.00
2023-06-22T09:15:01.321Z,91.80
2023-06-22T09:17:29.642Z,91.70
2023-06-22T09:19:57.942Z,91.00
2023-06-22T09:22:30.126Z,90.90
2023-06-22T09:25:00.831Z,90.50
2023-06-22T09:27:28.989Z,91.10
2023-06-22T09:29:59.392Z,90.40
2023-06-22T09:32:28.296Z,90.40
2023-06-22T09:34:56.381Z,90.00
2023-06-22T09:37:24.392Z,90.10
2023-06-22T09:39:52.475Z,90.30
2023-06-22T09:42:22.152Z,90.30
2023-06-22T09:44:50.160Z,90.30
2023-06-22T09:47:18.220Z,89.30
2023-06-22T09:49:48.703Z,87.90
2023-06-22T09:52:17.823Z,87.20
2023-06-22T09:54:45.885Z,88.40
2023-06-22T09:57:13.968Z,88.40
2023-06-22T09:59:44.510Z,87.00
2023-06-22T10:02:12.645Z,88.50
2023-06-22T10:04:41.508Z,86.90
2023-06-22T10:07:09.898Z,87.30
2023-06-22T10:09:37.874Z,87.40
2023-06-22T10:12:06.212Z,86.60
2023-06-22T10:14:34.274Z,85.60
2023-06-22T10:17:04.526Z,85.80
2023-06-22T10:19:32.569Z,85.20
2023-06-22T10:22:00.650Z,86.60
2023-06-22T10:24:28.635Z,84.30
2023-06-22T10:26:56.610Z,84.20
2023-06-22T10:29:24.660Z,85.80
2023-06-22T10:31:52.636Z,84.10
2023-06-22T10:34:22.039Z,83.40
2023-06-22T10:36:50.071Z,85.50
2023-06-22T10:39:18.135Z,84.70
2023-06-22T10:41:46.207Z,84.20
2023-06-22T10:44:14.653Z,82.50
2023-06-22T10:46:42.599Z,85.20
2023-06-22T10:49:10.557Z,85.30
2023-06-22T10:51:39.953Z,84.20
2023-06-22T10:54:07.932Z,83.80
2023-06-22T10:56:35.933Z,83.20
2023-06-22T10:59:04.004Z,82.50
2023-06-22T11:01:36.881Z,82.20
2023-06-22T11:04:05.996Z,81.90
2023-06-22T11:06:34.173Z,81.50
2023-06-22T11:09:12.313Z,81.90
2023-06-22T11:11:54.592Z,80.40
2023-06-22T11:14:23.410Z,80.20
2023-06-22T11:16:51.429Z,79.60
2023-06-22T11:19:19.474Z,78.10
2023-06-22T11:21:47.576Z,80.00
2023-06-22T11:24:18.303Z,78.30
2023-06-22T11:26:46.348Z,78.50
2023-06-22T11:29:19.622Z,79.00
2023-06-22T11:32:00.387Z,78.20
2023-06-22T11:34:29.164Z,78.60
2023-06-22T11:36:57.150Z,77.30
2023-06-22T11:39:34.248Z,77.30
2023-06-22T11:42:10.154Z,76.80
2023-06-22T11:44:38.137Z,76.30
2023-06-22T11:47:06.716Z,76.50
2023-06-22T11:49:34.799Z,76.50
2023-06-22T11:52:02.882Z,77.00
2023-06-22T11:54:32.212Z,77.20
2023-06-22T11:57:00.240Z,76.80
2023-06-22T11:59:28.239Z,77.00
2023-06-22T12:01:56.375Z,76.90
2023-06-22T12:04:24.372Z,77.90
2023-06-22T12:06:52.494Z,79.30
2023-06-22T12:09:20.462Z,78.50
2023-06-22T12:11:49.793Z,79.30
2023-06-22T12:14:17.797Z,79.80
2023-06-22T12:16:46.108Z,79.60
2023-06-22T12:19:14.126Z,80.40
2023-06-22T12:21:42.545Z,79.70
2023-06-22T12:24:10.638Z,80.10
2023-06-22T12:26:38.633Z,79.20
2023-06-22T12:29:07.991Z,78.70
2023-06-22T12:31:37.991Z,77.80
2023-06-22T12:34:06.050Z,78.40
2023-06-22T12:36:34.076Z,78.40
2023-06-22T12:39:02.061Z,78.60
2023-06-22T12:41:30.220Z,78.20
2023-06-22T12:43:58.329Z,78.70
2023-06-22T12:46:27.735Z,78.30
2023-06-22T12:48:55.722Z,79.10
2023-06-22T12:51:24.303Z,81.50
2023-06-22T12:53:52.508Z,82.70
2023-06-22T12:56:20.542Z,83.70
2023-06-22T12:58:48.561Z,85.00
2023-06-22T13:01:16.662Z,85.90
2023-06-22T13:03:46.049Z,86.60
2023-06-22T13:06:14.062Z,87.60
2023-06-22T13:09:10.657Z,88.70
2023-06-22T13:11:31.164Z,88.90
2023-06-22T13:13:59.406Z,89.80
2023-06-22T13:16:27.303Z,90.00
2023-06-22T13:18:56.698Z,90.40
2023-06-22T13:21:24.706Z,90.60
2023-06-22T13:23:52.730Z,91.00
2023-06-22T13:26:20.833Z,90.70
2023-06-22T13:28:48.867Z,90.90
2023-06-22T13:31:17.006Z,90.90
2023-06-22T13:33:46.716Z,90.80
2023-06-22T13:36:16.035Z,91.00
2023-06-22T13:38:44.013Z,90.60
2023-06-22T13:41:12.197Z,91.50
2023-06-22T13:43:40.282Z,90.70
2023-06-22T13:46:08.274Z,90.70
2023-06-22T13:48:36.286Z,90.40
2023-06-22T13:51:04.446Z,90.40
2023-06-22T13:53:33.769Z,90.40
2023-06-22T13:56:01.873Z,90.90
2023-06-22T13:58:29.923Z,90.70
2023-06-22T14:00:57.964Z,90.50
2023-06-22T14:03:26.086Z,90.10
2023-06-22T14:05:57.505Z,89.20
2023-06-22T14:08:41.310Z,89.20
2023-06-22T14:11:12.555Z,87.80
2023-06-22T14:13:43.366Z,85.40
2023-06-22T14:16:11.478Z,85.60
2023-06-22T14:18:39.460Z,85.40
2023-06-22T14:21:07.489Z,86.20
2023-06-22T14:23:35.508Z,86.60
2023-06-22T14:26:03.502Z,87.20
2023-06-22T14:28:32.947Z,86.20
2023-06-22T14:31:01.027Z,85.80
2023-06-22T14:33:29.038Z,85.60
2023-06-22T14:35:57.082Z,85.90
2023-06-22T14:38:25.122Z,85.70
2023-06-22T14:41:11.975Z,83.60
2023-06-22T14:43:46.826Z,83.20
2023-06-22T14:46:14.981Z,83.90
2023-06-22T14:48:43.165Z,81.40
2023-06-22T14:51:14.366Z,82.90
2023-06-22T14:53:48.515Z,81.60
2023-06-22T14:56:17.123Z,82.50
2023-06-22T14:58:47.918Z,83.00
2023-06-22T15:01:16.593Z,81.50
2023-06-22T15:03:44.646Z,81.90
2023-06-22T15:06:12.913Z,81.80
2023-06-22T15:08:41.476Z,81.90
2023-06-22T15:11:10.090Z,82.20
2023-06-22T15:13:41.478Z,82.90
2023-06-22T15:16:10.976Z,83.70
2023-06-22T15:18:41.888Z,83.50
2023-06-22T15:21:10.021Z,83.10
2023-06-22T15:23:38.117Z,83.40
2023-06-22T15:26:07.179Z,83.80
2023-06-22T15:28:38.243Z,83.80
2023-06-22T15:31:06.600Z,83.30
2023-06-22T15:33:35.971Z,83.50
2023-06-22T15:36:05.293Z,84.40
2023-06-22T15:38:34.732Z,83.90
2023-06-22T15:41:02.916Z,80.90
2023-06-22T15:43:31.011Z,80.10
2023-06-22T15:45:58.948Z,79.10
2023-06-22T15:48:27.010Z,77.60
2023-06-22T15:50:56.389Z,78.30
2023-06-22T15:53:24.475Z,75.50
2023-06-22T15:55:54.004Z,74.60
2023-06-22T15:58:22.456Z,74.00
2023-06-22T16:00:52.445Z,74.80
2023-06-22T16:03:21.730Z,73.40
2023-06-22T16:05:49.873Z,73.30
2023-06-22T16:08:19.285Z,73.40
2023-06-22T16:10:47.416Z,73.80
2023-06-22T16:13:17.286Z,74.60
2023-06-22T16:15:45.394Z,73.40
2023-06-22T16:18:13.572Z,74.80
2023-06-22T16:20:41.739Z,73.80
2023-06-22T16:23:10.192Z,74.00
2023-06-22T16:25:39.615Z,74.60
2023-06-22T16:28:07.735Z,74.00
2023-06-22T16:30:35.864Z,74.10
2023-06-22T16:33:04.333Z,74.30
2023-06-22T16:35:34.080Z,75.20
2023-06-22T16:38:02.244Z,75.40
2023-06-22T16:40:31.107Z,75.70
2023-06-22T16:43:00.911Z,75.20
2023-06-22T16:45:29.069Z,75.90
2023-06-22T16:47:57.082Z,74.70
2023-06-22T16:50:25.266Z,74.60
2023-06-22T16:52:53.315Z,74.80
2023-06-22T16:55:24.299Z,75.60
2023-06-22T16:57:53.450Z,75.40
2023-06-22T17:00:23.986Z,75.60
2023-06-22T17:02:52.980Z,75.80
2023-06-22T17:05:21.628Z,75.70
2023-06-22T17:07:53.700Z,76.70
2023-06-22T17:10:22.911Z,76.10
2023-06-22T17:12:52.851Z,76.40
2023-06-22T17:15:24.469Z,75.90
2023-06-22T17:17:53.744Z,75.90
2023-06-22T17:20:22.028Z,75.60
2023-06-22T17:22:50.549Z,74.40
2023-06-22T17:25:21.055Z,74.70
2023-06-22T17:27:50.333Z,74.60
2023-06-22T17:30:21.771Z,75.00
2023-06-22T17:32:51.741Z,75.20
2023-06-22T17:35:19.982Z,75.50
2023-06-22T17:37:52.104Z,75.70
2023-06-22T17:40:22.025Z,75.80
2023-06-22T17:42:50.164Z,76.10
2023-06-22T17:45:19.330Z,76.40
2023-06-22T17:47:53.427Z,75.70
2023-06-22T17:50:24.476Z,76.10
2023-06-22T17:52:53.707Z,76.10
2023-06-22T17:55:25.088Z,76.10
2023-06-22T17:57:57.712Z,76.40
2023-06-22T18:00:26.072Z,76.80
2023-06-22T18:02:56.441Z,76.90
2023-06-22T18:05:32.204Z,77.40
2023-06-22T18:08:01.456Z,77.40
2023-06-22T18:10:31.539Z,76.90
2023-06-22T18:13:00.837Z,76.30
2023-06-22T18:15:29.972Z,76.40
2023-06-22T18:18:00.873Z,76.10
2023-06-22T18:20:29.874Z,76.20
2023-06-22T18:22:59.640Z,76.10
2023-06-22T18:25:28.950Z,75.60
2023-06-22T18:27:57.234Z,75.10
2023-06-22T18:30:26.389Z,75.00
2023-06-22T18:32:54.311Z,75.70
2023-06-22T18:35:24.094Z,75.30
2023-06-22T18:37:53.112Z,74.80
2023-06-22T18:40:21.494Z,74.30
2023-06-22T18:42:49.984Z,73.80
2023-06-22T18:45:25.310Z,73.10
2023-06-22T18:48:04.631Z,72.70
2023-06-22T18:50:43.631Z,72.20
2023-06-22T18:53:18.650Z,72.20
2023-06-22T18:55:51.815Z,72.40
2023-06-22T18:58:24.798Z,71.30
2023-06-22T19:00:54.241Z,70.70
2023-06-22T19:03:33.080Z,70.90
2023-06-22T19:06:02.619Z,70.80
2023-06-22T19:09:09.120Z,70.60
2023-06-22T19:11:37.117Z,70.40
2023-06-22T19:14:08.712Z,70.30
2023-06-22T19:16:36.838Z,71.20
2023-06-22T19:19:14.276Z,70.80
2023-06-22T19:21:44.000Z,70.70
2023-06-22T19:24:31.598Z,71.00
2023-06-22T19:27:00.172Z,71.10
2023-06-22T19:29:29.200Z,71.10
2023-06-22T19:31:58.429Z,72.40
2023-06-22T19:34:28.119Z,71.70
2023-06-22T19:37:01.084Z,71.80
2023-06-22T19:39:36.897Z,72.20
2023-06-22T19:42:05.136Z,73.40
2023-06-22T19:44:33.202Z,73.20
2023-06-22T19:47:01.189Z,73.40
2023-06-22T19:49:29.179Z,74.50
2023-06-22T19:52:08.163Z,74.00
2023-06-22T19:54:38.328Z,74.60
2023-06-22T19:57:07.311Z,74.80
2023-06-22T19:59:35.263Z,75.30
2023-06-22T20:02:03.317Z,76.60
2023-06-22T20:04:33.272Z,76.50
2023-06-22T20:07:07.633Z,77.20
2023-06-22T20:09:38.264Z,77.40
2023-06-22T20:12:11.362Z,78.40
2023-06-22T20:14:39.330Z,80.10
2023-06-22T20:17:10.495Z,81.50
2023-06-22T20:19:41.852Z,82.70
2023-06-22T20:22:12.636Z,84.10
2023-06-22T20:24:40.664Z,85.20
2023-06-22T20:27:14.178Z,86.00
2023-06-22T20:29:44.716Z,87.20
2023-06-22T20:32:14.164Z,87.80
2023-06-22T20:34:45.952Z,88.20
2023-06-22T20:37:16.364Z,88.80
2023-06-22T20:39:48.521Z,89.00
2023-06-22T20:42:18.506Z,89.20
2023-06-22T20:44:51.049Z,89.50
2023-06-22T20:47:21.103Z,90.00
2023-06-22T20:49:49.428Z,90.10
2023-06-22T20:52:19.011Z,90.50
2023-06-22T20:54:48.374Z,90.60
2023-06-22T20:57:16.384Z,90.70
2023-06-22T20:59:44.344Z,91.20
2023-06-22T21:02:12.485Z,91.20
2023-06-22T21:04:41.111Z,91.50
2023-06-22T21:07:09.166Z,91.80
2023-06-22T21:09:50.791Z,91.90
2023-06-22T21:12:20.000Z,92.10
2023-06-22T21:14:48.070Z,92.30
2023-06-22T21:17:16.076Z,92.50
2023-06-22T21:19:43.988Z,92.70
2023-06-22T21:22:11.993Z,92.90
2023-06-22T21:24:43.537Z,93.00
2023-06-22T21:27:13.012Z,93.20
2023-06-22T21:29:40.942Z,93.30
2023-06-22T21:32:09.807Z,93.40
2023-06-22T21:34:37.770Z,93.80
2023-06-22T21:37:06.331Z,93.60
2023-06-22T21:39:36.506Z,93.80
2023-06-22T21:42:06.482Z,93.90
2023-06-22T21:44:34.434Z,93.90
2023-06-22T21:47:02.347Z,94.00
2023-06-22T21:49:30.301Z,94.10
2023-06-22T21:51:58.328Z,94.40
2023-06-22T21:54:26.355Z,94.70
2023-06-22T21:56:54.369Z,95.10
2023-06-22T21:59:24.929Z,95.50
2023-06-22T22:01:52.927Z,95.60
2023-06-22T22:04:23.335Z,95.80
2023-06-22T22:06:51.891Z,95.80
2023-06-22T22:09:20.811Z,95.50
2023-06-22T22:11:49.091Z,95.30
2023-06-22T22:14:18.124Z,95.20
2023-06-22T22:16:47.525Z,95.30
2023-06-22T22:19:15.944Z,94.80
2023-06-22T22:21:44.642Z,94.50
2023-06-22T22:24:12.754Z,94.20
2023-06-22T22:26:41.124Z,94.20
2023-06-22T22:29:09.044Z,94.20
2023-06-22T22:31:39.504Z,94.20
2023-06-22T22:34:10.875Z,94.30
2023-06-22T22:36:40.273Z,94.30
2023-06-22T22:39:10.191Z,94.10
2023-06-22T22:41:38.243Z,93.80
2023-06-22T22:44:06.386Z,93.90
2023-06-22T22:46:35.286Z,93.80
2023-06-22T22:49:03.517Z,94.10
2023-06-22T22:51:32.810Z,93.80
2023-06-22T22:54:00.892Z,93.80
2023-06-22T22:56:28.846Z,93.80
2023-06-22T22:58:56.722Z,93.90
2023-06-22T23:01:24.668Z,94.00
2023-06-22T23:03:52.666Z,94.00
2023-06-22T23:06:20.688Z,94.00
2023-06-22T23:08:56.728Z,94.10
2023-06-22T23:11:24.839Z,94.10
2023-06-22T23:13:58.247Z,94.10
2023-06-22T23:16:28.425Z,94.10
2023-06-22T23:18:56.500Z,94.20
2023-06-22T23:21:24.536Z,94.40
2023-06-22T23:23:56.461Z,94.50
2023-06-22T23:26:24.786Z,94.50
2023-06-22T23:28:52.691Z,94.70
2023-06-22T23:31:20.670Z,94.80
2023-06-22T23:33:49.222Z,95.10
2023-06-22T23:36:22.180Z,94.80
2023-06-22T23:38:50.134Z,94.90
2023-06-22T23:41:19.368Z,95.00
2023-06-22T23:43:47.332Z,95.00
2023-06-22T23:46:15.339Z,95.00
2023-06-22T23:48:45.665Z,95.00
2023-06-22T23:51:13.919Z,95.10
2023-06-22T23:53:41.918Z,95.10
2023-06-22T23:56:10.228Z,95.20
2023-06-22T23:58:39.540Z,95.30
